Original METAR for KOLM:
232354Z 22005KT 10SM SCT047 SCT110 09/03 A3009 RMK AO2 SLP190 T00890033 10106 20078 51019

Wind: KT ° at 10 knots
Visibility: 10 statute miles
Sky conditions: Scattered clouds at 4,700 feet
Temperature: 48.2°F
Dew Point: 37.4°F
Altimeter: 30.09

Remarks:
-- METAR generated by an automated station with a precipitation discriminator.
-- Sea level pressure: 1,019.0 millibars.
-- Precise hourly temperature and dew point: 8.9°C / 3.3°C

NOTE:
This METAR was retrieved from the National Weather Service at:
https://www.aviationweather.gov/metar/data?ids=KOLM&format=raw&date=0&hours=0


Cessnas2Oshkosh, C2O, CessnaBaseCamp and The Pirep | Testimonials | Donations | FAQ | Privacy | Contact Us
are trademarks of Cessnas 2 Oshkosh - Dothan, AL Copyright © 2008 - 2020 Cessnas 2 Oshkosh. All rights reserved.